createdAt,value
2022-08-21T00:00:36.249Z,19.43
2022-08-21T00:03:10.159Z,19.44
2022-08-21T00:05:48.701Z,19.42
2022-08-21T00:08:22.248Z,19.39
2022-08-21T00:10:53.931Z,19.37
2022-08-21T00:13:26.485Z,19.36
2022-08-21T00:15:58.317Z,19.31
2022-08-21T00:18:30.083Z,19.25
2022-08-21T00:21:01.914Z,19.23
2022-08-21T00:23:36.385Z,19.23
2022-08-21T00:26:08.375Z,19.23
2022-08-21T00:28:40.340Z,19.22
2022-08-21T00:31:12.264Z,19.22
2022-08-21T00:33:44.336Z,19.26
2022-08-21T00:36:16.358Z,19.26
2022-08-21T00:38:48.018Z,19.27
2022-08-21T00:41:37.164Z,19.26
2022-08-21T00:43:53.563Z,19.22
2022-08-21T00:46:28.320Z,19.16
2022-08-21T00:48:59.305Z,19.07
2022-08-21T00:51:51.002Z,19.03
2022-08-21T00:54:25.592Z,19.03
2022-08-21T00:57:01.348Z,19.04
2022-08-21T00:59:35.394Z,19.07
2022-08-21T01:02:08.889Z,19.09
2022-08-21T01:04:41.607Z,19.13
2022-08-21T01:07:14.563Z,19.15
2022-08-21T01:09:47.917Z,19.20
2022-08-21T01:12:20.199Z,19.24
2022-08-21T01:14:52.024Z,19.26
2022-08-21T01:17:23.975Z,19.25
2022-08-21T01:19:57.526Z,19.22
2022-08-21T01:22:29.463Z,19.18
2022-08-21T01:25:01.205Z,19.13
2022-08-21T01:27:33.092Z,19.08
2022-08-21T01:30:14.221Z,19.07
2022-08-21T01:32:46.530Z,19.07
2022-08-21T01:35:19.427Z,19.07
2022-08-21T01:37:51.332Z,19.10
2022-08-21T01:40:23.543Z,19.15
2022-08-21T01:42:55.487Z,19.19
2022-08-21T01:45:27.429Z,19.23
2022-08-21T01:47:59.307Z,19.24
2022-08-21T01:50:31.619Z,19.23
2022-08-21T01:53:03.601Z,19.20
2022-08-21T01:55:35.432Z,19.15
2022-08-21T01:58:07.241Z,19.09
2022-08-21T02:00:39.845Z,19.05
2022-08-21T02:03:11.719Z,19.03
2022-08-21T02:05:43.910Z,19.00
2022-08-21T02:08:15.608Z,19.00
2022-08-21T02:10:49.012Z,19.01
2022-08-21T02:13:21.284Z,19.05
2022-08-21T02:15:53.483Z,19.09
2022-08-21T02:18:25.569Z,19.15
2022-08-21T02:20:57.475Z,19.23
2022-08-21T02:23:29.381Z,19.28
2022-08-21T02:26:03.009Z,19.32
2022-08-21T02:28:35.943Z,19.34
2022-08-21T02:31:07.998Z,19.35
2022-08-21T02:33:40.667Z,19.37
2022-08-21T02:36:13.063Z,19.39
2022-08-21T02:38:45.432Z,19.40
2022-08-21T02:41:18.774Z,19.44
2022-08-21T02:43:51.069Z,19.50
2022-08-21T02:46:23.106Z,19.56
2022-08-21T02:48:54.848Z,19.61
2022-08-21T02:51:27.245Z,19.69
2022-08-21T02:53:59.005Z,19.76
2022-08-21T02:56:31.639Z,19.82
2022-08-21T02:59:03.614Z,19.89
2022-08-21T03:01:35.539Z,19.95
2022-08-21T03:04:07.366Z,19.99
2022-08-21T03:06:39.095Z,20.04
2022-08-21T03:09:11.344Z,20.09
2022-08-21T03:11:45.110Z,20.14
2022-08-21T03:14:16.920Z,20.19
2022-08-21T03:16:48.927Z,20.24
2022-08-21T03:19:21.401Z,20.28
2022-08-21T03:21:53.232Z,20.33
2022-08-21T03:24:25.513Z,20.36
2022-08-21T03:26:58.009Z,20.41
2022-08-21T03:29:30.032Z,20.45
2022-08-21T03:32:01.787Z,20.47
2022-08-21T03:34:33.681Z,20.50
2022-08-21T03:37:06.896Z,20.54
2022-08-21T03:39:38.948Z,20.57
2022-08-21T03:42:10.995Z,20.61
2022-08-21T03:44:43.053Z,20.63
2022-08-21T03:47:15.034Z,20.67
2022-08-21T03:49:46.840Z,20.72
2022-08-21T03:52:18.925Z,20.76
2022-08-21T03:54:51.496Z,20.82
2022-08-21T03:57:23.752Z,20.86
2022-08-21T03:59:56.099Z,20.90
2022-08-21T04:02:28.326Z,20.94
2022-08-21T04:05:00.135Z,20.99
2022-08-21T04:07:32.210Z,21.04
2022-08-21T04:10:07.991Z,21.07
2022-08-21T04:12:40.070Z,21.09
2022-08-21T04:15:12.510Z,21.10
2022-08-21T04:17:47.326Z,21.10
2022-08-21T04:20:20.034Z,21.10
2022-08-21T04:22:52.662Z,21.10
2022-08-21T04:25:26.574Z,21.09
2022-08-21T04:27:59.120Z,21.08
2022-08-21T04:30:31.160Z,21.11
2022-08-21T04:33:04.451Z,21.13
2022-08-21T04:35:36.721Z,21.16
2022-08-21T04:38:08.713Z,21.17
2022-08-21T04:40:40.676Z,21.19
2022-08-21T04:43:13.110Z,21.17
2022-08-21T04:45:48.766Z,21.15
2022-08-21T04:48:22.935Z,21.13
2022-08-21T04:51:00.196Z,21.14
2022-08-21T04:53:39.924Z,21.14
2022-08-21T04:56:33.344Z,21.15
2022-08-21T04:59:08.001Z,21.18
2022-08-21T05:01:40.028Z,21.19
2022-08-21T05:04:14.944Z,21.21
2022-08-21T05:06:48.467Z,21.23
2022-08-21T05:09:20.395Z,21.23
2022-08-21T05:11:53.950Z,21.22
2022-08-21T05:14:27.550Z,21.18
2022-08-21T05:16:59.986Z,21.15
2022-08-21T05:19:32.070Z,21.13
2022-08-21T05:22:04.722Z,21.14
2022-08-21T05:24:37.424Z,21.15
2022-08-21T05:27:09.277Z,21.17
2022-08-21T05:29:41.069Z,21.19
2022-08-21T05:32:14.321Z,21.17
2022-08-21T05:34:47.805Z,21.15
2022-08-21T05:37:19.769Z,21.15
2022-08-21T05:40:20.494Z,21.15
2022-08-21T05:42:25.622Z,21.17
2022-08-21T05:44:57.383Z,21.17
2022-08-21T05:47:29.657Z,21.22
2022-08-21T05:50:01.394Z,21.27
2022-08-21T05:52:34.170Z,21.31
2022-08-21T05:55:06.578Z,21.39
2022-08-21T05:57:41.119Z,21.46
2022-08-21T06:00:13.566Z,21.56
2022-08-21T06:02:45.323Z,21.64
2022-08-21T06:05:25.155Z,21.72
2022-08-21T06:07:51.501Z,21.80
2022-08-21T06:10:23.932Z,21.85
2022-08-21T06:12:56.694Z,21.89
2022-08-21T06:15:28.459Z,21.93
2022-08-21T06:18:00.436Z,21.96
2022-08-21T06:20:33.153Z,21.98
2022-08-21T06:23:05.126Z,21.99
2022-08-21T06:25:37.192Z,21.98
2022-08-21T06:28:10.541Z,21.97
2022-08-21T06:30:42.375Z,21.97
2022-08-21T06:33:14.270Z,21.93
2022-08-21T06:35:47.704Z,21.89
2022-08-21T06:38:20.706Z,21.84
2022-08-21T06:40:52.391Z,21.76
2022-08-21T06:43:24.256Z,21.71
2022-08-21T06:45:57.953Z,21.67
2022-08-21T06:48:31.717Z,21.69
2022-08-21T06:51:03.842Z,21.71
2022-08-21T06:53:35.655Z,21.74
2022-08-21T06:56:07.590Z,21.83
2022-08-21T06:58:39.546Z,22.00
2022-08-21T07:01:12.354Z,22.19
2022-08-21T07:03:45.023Z,22.41
2022-08-21T07:06:17.153Z,22.66
2022-08-21T07:08:49.134Z,22.91
2022-08-21T07:11:23.714Z,23.11
2022-08-21T07:13:57.890Z,23.27
2022-08-21T07:16:29.682Z,23.39
2022-08-21T07:19:01.940Z,23.52
2022-08-21T07:21:33.765Z,23.62
2022-08-21T07:24:05.737Z,23.73
2022-08-21T07:26:37.650Z,23.83
2022-08-21T07:29:09.483Z,23.90
2022-08-21T07:31:41.522Z,23.97
2022-08-21T07:34:13.403Z,24.03
2022-08-21T07:36:45.562Z,24.09
2022-08-21T07:39:18.170Z,24.14
2022-08-21T07:41:49.945Z,24.14
2022-08-21T07:44:21.973Z,24.15
2022-08-21T07:46:53.716Z,24.15
2022-08-21T07:49:25.883Z,24.20
2022-08-21T07:51:59.166Z,24.24
2022-08-21T07:54:33.813Z,24.24
2022-08-21T07:57:04.998Z,24.28
2022-08-21T07:59:37.092Z,24.31
2022-08-21T08:02:08.980Z,24.34
2022-08-21T08:04:50.943Z,24.36
2022-08-21T08:07:15.743Z,24.39
2022-08-21T08:09:48.591Z,24.42
2022-08-21T08:12:21.312Z,24.46
2022-08-21T08:14:54.052Z,24.51
2022-08-21T08:17:26.569Z,24.55
2022-08-21T08:19:58.686Z,24.63
2022-08-21T08:22:30.430Z,24.69
2022-08-21T08:25:05.207Z,24.69
2022-08-21T08:27:36.924Z,24.69
2022-08-21T08:30:12.050Z,24.69
2022-08-21T08:32:44.473Z,24.71
2022-08-21T08:35:16.366Z,24.71
2022-08-21T08:37:52.701Z,24.73
2022-08-21T08:40:34.443Z,24.78
2022-08-21T08:43:06.731Z,24.83
2022-08-21T08:45:39.955Z,24.86
2022-08-21T08:48:15.448Z,24.89
2022-08-21T08:50:53.567Z,24.93
2022-08-21T08:53:28.435Z,24.99
2022-08-21T08:56:00.164Z,25.06
2022-08-21T08:58:41.276Z,25.14
2022-08-21T09:01:18.837Z,25.19
2022-08-21T09:03:50.664Z,25.21
2022-08-21T09:06:49.707Z,25.24
2022-08-21T09:09:42.996Z,25.27
2022-08-21T09:12:20.941Z,25.23
2022-08-21T09:15:12.304Z,25.20
2022-08-21T09:17:52.574Z,25.18
2022-08-21T09:21:05.519Z,25.17
2022-08-21T09:23:58.785Z,25.23
2022-08-21T09:26:51.974Z,25.34
2022-08-21T09:29:25.763Z,25.41
2022-08-21T09:31:57.591Z,25.44
2022-08-21T09:34:32.501Z,25.48
2022-08-21T09:37:05.191Z,25.54
2022-08-21T09:39:46.899Z,25.58
2022-08-21T09:42:18.603Z,25.65
2022-08-21T09:44:50.664Z,25.68
2022-08-21T09:47:26.575Z,25.69
2022-08-21T09:49:56.159Z,25.73
2022-08-21T09:52:28.082Z,25.77
2022-08-21T09:54:59.979Z,25.85
2022-08-21T09:57:46.623Z,25.93
2022-08-21T10:00:32.188Z,26.01
2022-08-21T10:03:12.628Z,26.09
2022-08-21T10:05:57.465Z,26.13
2022-08-21T10:08:30.396Z,26.20
2022-08-21T10:11:11.099Z,26.29
2022-08-21T10:13:50.229Z,26.38
2022-08-21T10:16:43.160Z,26.44
2022-08-21T10:19:33.129Z,26.48
2022-08-21T10:22:19.925Z,26.54
2022-08-21T10:25:01.058Z,26.59
2022-08-21T10:27:42.650Z,26.64
2022-08-21T10:30:16.569Z,26.68
2022-08-21T10:33:03.401Z,26.71
2022-08-21T10:35:38.404Z,26.69
2022-08-21T10:38:46.273Z,26.64
2022-08-21T10:41:26.582Z,26.66
2022-08-21T10:44:13.940Z,26.73
2022-08-21T10:47:11.784Z,26.85
2022-08-21T10:50:02.065Z,26.95
2022-08-21T10:52:49.684Z,26.98
2022-08-21T10:55:23.763Z,26.96
2022-08-21T10:58:06.610Z,26.96
2022-08-21T11:00:48.062Z,26.97
2022-08-21T11:03:28.048Z,26.95
2022-08-21T11:06:27.148Z,26.92
2022-08-21T11:09:02.161Z,26.87
2022-08-21T11:11:53.670Z,26.84
2022-08-21T11:14:29.622Z,26.83
2022-08-21T11:17:19.143Z,26.83
2022-08-21T11:20:13.787Z,26.83
2022-08-21T11:22:59.978Z,26.84
2022-08-21T11:25:37.056Z,26.86
2022-08-21T11:28:20.657Z,26.86
2022-08-21T11:31:15.045Z,26.86
2022-08-21T11:34:08.116Z,26.86
2022-08-21T11:37:08.566Z,26.87
2022-08-21T11:40:08.237Z,26.86
2022-08-21T11:42:46.670Z,26.83
2022-08-21T11:45:39.439Z,26.78
2022-08-21T11:48:35.059Z,26.74
2022-08-21T11:51:09.564Z,26.69
2022-08-21T11:53:53.866Z,26.65
2022-08-21T11:56:29.382Z,26.60
2022-08-21T11:59:04.881Z,26.53
2022-08-21T12:01:43.822Z,26.40
2022-08-21T12:04:30.932Z,26.27
2022-08-21T12:07:17.607Z,26.14
2022-08-21T12:09:58.372Z,26.03
2022-08-21T12:12:38.153Z,25.97
2022-08-21T12:15:28.239Z,25.93
2022-08-21T12:18:03.273Z,25.88
2022-08-21T12:20:38.393Z,25.87
2022-08-21T12:23:17.125Z,25.86
2022-08-21T12:26:26.840Z,25.87
2022-08-21T12:29:17.340Z,25.91
2022-08-21T12:31:57.603Z,25.98
2022-08-21T12:34:38.377Z,26.07
2022-08-21T12:37:18.851Z,26.18
2022-08-21T12:39:53.585Z,26.33
2022-08-21T12:42:27.811Z,26.49
2022-08-21T12:45:03.282Z,26.65
2022-08-21T12:47:55.166Z,26.76
2022-08-21T12:50:57.733Z,26.86
2022-08-21T12:53:49.871Z,26.97
2022-08-21T12:56:25.167Z,27.08
2022-08-21T12:59:00.579Z,27.18
2022-08-21T13:01:41.483Z,27.21
2022-08-21T13:04:14.249Z,27.24
2022-08-21T13:06:52.439Z,27.26
2022-08-21T13:09:27.453Z,27.28
2022-08-21T13:11:59.781Z,27.31
2022-08-21T13:14:45.304Z,27.33
2022-08-21T13:17:20.336Z,27.37
2022-08-21T13:20:02.932Z,27.41
2022-08-21T13:22:36.762Z,27.44
2022-08-21T13:25:14.625Z,27.48
2022-08-21T13:27:49.044Z,27.49
2022-08-21T13:30:23.526Z,27.50
2022-08-21T13:32:58.614Z,27.50
2022-08-21T13:35:38.210Z,27.49
2022-08-21T13:38:10.069Z,27.51
2022-08-21T13:40:54.158Z,27.54
2022-08-21T13:43:29.872Z,27.57
2022-08-21T13:46:07.296Z,27.64
2022-08-21T13:48:39.724Z,27.70
2022-08-21T13:51:11.861Z,27.77
2022-08-21T13:53:47.100Z,27.83
2022-08-21T13:56:29.988Z,27.87
2022-08-21T13:59:03.253Z,27.88
2022-08-21T14:01:43.742Z,27.91
2022-08-21T14:04:18.685Z,27.91
2022-08-21T14:06:50.601Z,27.91
2022-08-21T14:09:28.293Z,27.89
2022-08-21T14:12:02.272Z,27.86
2022-08-21T14:14:36.521Z,27.84
2022-08-21T14:17:24.312Z,27.79
2022-08-21T14:19:46.667Z,27.78
2022-08-21T14:22:36.768Z,27.77
2022-08-21T14:25:11.769Z,27.81
2022-08-21T14:27:46.659Z,27.85
2022-08-21T14:30:24.049Z,27.86
2022-08-21T14:32:56.413Z,27.88
2022-08-21T14:35:28.734Z,27.88
2022-08-21T14:38:01.719Z,27.89
2022-08-21T14:40:35.716Z,27.92
2022-08-21T14:43:07.510Z,27.89
2022-08-21T14:45:41.102Z,27.87
2022-08-21T14:48:12.812Z,27.83
2022-08-21T14:50:44.924Z,27.81
2022-08-21T14:53:17.325Z,27.77
2022-08-21T14:56:08.018Z,27.76
2022-08-21T14:58:49.598Z,27.72
2022-08-21T15:01:23.270Z,27.70
2022-08-21T15:03:54.969Z,27.67
2022-08-21T15:06:26.854Z,27.67
2022-08-21T15:08:58.628Z,27.63
2022-08-21T15:11:42.227Z,27.60
2022-08-21T15:14:05.406Z,27.59
2022-08-21T15:16:37.513Z,27.56
2022-08-21T15:19:09.366Z,27.55
2022-08-21T15:21:41.178Z,27.53
2022-08-21T15:24:12.853Z,27.52
2022-08-21T15:26:44.967Z,27.51
2022-08-21T15:29:20.693Z,27.49
2022-08-21T15:31:59.075Z,27.51
2022-08-21T15:34:32.190Z,27.51
2022-08-21T15:37:05.624Z,27.50
2022-08-21T15:39:39.649Z,27.48
2022-08-21T15:42:12.060Z,27.46
2022-08-21T15:44:45.495Z,27.42
2022-08-21T15:47:22.475Z,27.38
2022-08-21T15:49:54.330Z,27.33
2022-08-21T15:52:26.126Z,27.27
2022-08-21T15:54:57.949Z,27.21
2022-08-21T15:57:29.923Z,27.15
2022-08-21T16:00:09.450Z,27.07
2022-08-21T16:02:46.524Z,26.99
2022-08-21T16:05:19.444Z,26.93
2022-08-21T16:07:52.347Z,26.85
2022-08-21T16:10:29.851Z,26.78
2022-08-21T16:13:03.023Z,26.70
2022-08-21T16:15:34.833Z,26.65
2022-08-21T16:18:06.742Z,26.60
2022-08-21T16:20:38.385Z,26.55
2022-08-21T16:23:10.511Z,26.51
2022-08-21T16:25:42.752Z,26.48
2022-08-21T16:28:16.057Z,26.43
2022-08-21T16:30:49.680Z,26.38
2022-08-21T16:33:33.443Z,26.34
2022-08-21T16:36:07.165Z,26.30
2022-08-21T16:38:39.704Z,26.28
2022-08-21T16:41:13.852Z,26.22
2022-08-21T16:43:45.977Z,26.17
2022-08-21T16:46:18.987Z,26.13
2022-08-21T16:48:50.940Z,26.09
2022-08-21T16:51:22.817Z,26.03
2022-08-21T16:53:54.848Z,25.99
2022-08-21T16:56:27.014Z,25.96
2022-08-21T16:58:59.606Z,25.90
2022-08-21T17:01:33.105Z,25.87
2022-08-21T17:04:05.225Z,25.81
2022-08-21T17:06:37.049Z,25.78
2022-08-21T17:09:08.838Z,25.74
2022-08-21T17:11:46.385Z,25.69
2022-08-21T17:14:22.880Z,25.65
2022-08-21T17:16:56.234Z,25.60
2022-08-21T17:19:28.003Z,25.56
2022-08-21T17:21:59.745Z,25.52
2022-08-21T17:24:31.772Z,25.49
2022-08-21T17:27:03.834Z,25.45
2022-08-21T17:29:39.359Z,25.43
2022-08-21T17:32:12.616Z,25.41
2022-08-21T17:34:45.153Z,25.36
2022-08-21T17:37:17.016Z,25.32
2022-08-21T17:39:48.761Z,25.28
2022-08-21T17:42:22.151Z,25.23
2022-08-21T17:44:56.162Z,25.20
2022-08-21T17:47:27.939Z,25.16
2022-08-21T17:49:59.801Z,25.11
2022-08-21T17:52:33.597Z,25.08
2022-08-21T17:55:06.575Z,25.03
2022-08-21T17:57:39.654Z,24.99
2022-08-21T18:00:13.973Z,24.97
2022-08-21T18:02:47.706Z,24.92
2022-08-21T18:05:20.445Z,24.89
2022-08-21T18:07:52.562Z,24.85
2022-08-21T18:10:26.070Z,24.81
2022-08-21T18:12:58.704Z,24.78
2022-08-21T18:15:30.620Z,24.72
2022-08-21T18:18:02.554Z,24.68
2022-08-21T18:20:34.509Z,24.64
2022-08-21T18:23:06.496Z,24.62
2022-08-21T18:25:38.274Z,24.59
2022-08-21T18:28:10.296Z,24.56
2022-08-21T18:30:43.000Z,24.53
2022-08-21T18:33:15.143Z,24.51
2022-08-21T18:35:47.225Z,24.49
2022-08-21T18:38:20.783Z,24.46
2022-08-21T18:40:56.123Z,24.43
2022-08-21T18:43:27.795Z,24.40
2022-08-21T18:45:59.741Z,24.38
2022-08-21T18:48:32.416Z,24.35
2022-08-21T18:51:04.518Z,24.32
2022-08-21T18:53:37.963Z,24.30
2022-08-21T18:56:15.582Z,24.28
2022-08-21T18:58:44.497Z,24.27
2022-08-21T19:03:50.731Z,24.22
2022-08-21T19:06:23.322Z,24.17
2022-08-21T19:08:56.284Z,24.13
2022-08-21T19:11:28.873Z,24.09
2022-08-21T19:14:02.110Z,24.03
2022-08-21T19:16:36.863Z,23.97
2022-08-21T19:19:09.986Z,23.91
2022-08-21T19:21:41.795Z,23.87
2022-08-21T19:24:17.811Z,23.82
2022-08-21T19:26:47.103Z,23.78
2022-08-21T19:29:19.366Z,23.78
2022-08-21T19:31:53.176Z,23.77
2022-08-21T19:34:27.603Z,23.76
2022-08-21T19:37:01.122Z,23.74
2022-08-21T19:39:34.644Z,23.72
2022-08-21T19:42:07.184Z,23.70
2022-08-21T19:44:40.739Z,23.67
2022-08-21T19:47:19.392Z,23.61
2022-08-21T19:49:53.952Z,23.58
2022-08-21T19:52:27.921Z,23.56
2022-08-21T19:55:01.405Z,23.52
2022-08-21T19:57:33.288Z,23.50
2022-08-21T20:00:07.482Z,23.52
2022-08-21T20:02:48.090Z,23.57
2022-08-21T20:05:16.091Z,23.65
2022-08-21T20:07:49.927Z,23.76
2022-08-21T20:10:22.548Z,23.89
2022-08-21T20:12:54.835Z,24.00
2022-08-21T20:15:26.652Z,24.12
2022-08-21T20:17:59.489Z,24.24
2022-08-21T20:20:31.633Z,24.33
2022-08-21T20:23:10.695Z,24.42
2022-08-21T20:25:37.062Z,24.50
2022-08-21T20:28:08.827Z,24.54
2022-08-21T20:30:46.791Z,24.58
2022-08-21T20:33:15.492Z,24.61
2022-08-21T20:35:48.890Z,24.64
2022-08-21T20:38:21.561Z,24.65
2022-08-21T20:40:53.778Z,24.68
2022-08-21T20:43:26.335Z,24.68
2022-08-21T20:46:00.858Z,24.68
2022-08-21T20:48:49.134Z,24.69
2022-08-21T20:51:17.829Z,24.73
2022-08-21T20:54:08.035Z,24.76
2022-08-21T20:56:47.441Z,24.78
2022-08-21T20:59:32.676Z,24.79
2022-08-21T21:02:41.056Z,24.81
2022-08-21T21:05:34.563Z,24.82
2022-08-21T21:08:11.791Z,24.83
2022-08-21T21:10:51.567Z,24.83
2022-08-21T21:13:29.382Z,24.83
2022-08-21T21:16:07.676Z,24.83
2022-08-21T21:18:49.972Z,24.83
2022-08-21T21:21:38.810Z,24.80
2022-08-21T21:24:19.573Z,24.78
2022-08-21T21:26:53.732Z,24.74
2022-08-21T21:29:34.957Z,24.69
2022-08-21T21:32:08.833Z,24.68
2022-08-21T21:34:44.176Z,24.65
2022-08-21T21:37:25.325Z,24.65
2022-08-21T21:40:35.549Z,24.64
2022-08-21T21:43:25.213Z,24.63
2022-08-21T21:46:06.003Z,24.60
2022-08-21T21:48:44.388Z,24.58
2022-08-21T21:51:22.498Z,24.55
2022-08-21T21:54:06.221Z,24.53
2022-08-21T21:56:56.894Z,24.50
2022-08-21T21:59:43.919Z,24.46
2022-08-21T22:02:27.864Z,24.44
2022-08-21T22:05:11.147Z,24.40
2022-08-21T22:07:46.039Z,24.38
2022-08-21T22:10:43.125Z,24.34
2022-08-21T22:13:26.638Z,24.31
2022-08-21T22:15:57.611Z,24.30
2022-08-21T22:18:32.156Z,24.27
2022-08-21T22:21:06.027Z,24.27
2022-08-21T22:23:40.876Z,24.24
2022-08-21T22:26:17.990Z,24.22
2022-08-21T22:28:51.305Z,24.17
2022-08-21T22:31:25.893Z,24.14
2022-08-21T22:34:17.859Z,24.11
2022-08-21T22:36:51.718Z,24.07
2022-08-21T22:39:33.117Z,24.03
2022-08-21T22:42:17.453Z,24.01
2022-08-21T22:47:42.358Z,23.95
2022-08-21T22:53:08.972Z,23.87
2022-08-21T22:55:43.650Z,23.84
2022-08-21T22:58:21.944Z,23.79
2022-08-21T23:00:59.726Z,23.73
2022-08-21T23:03:45.246Z,23.70
2022-08-21T23:06:34.005Z,23.66
2022-08-21T23:09:05.978Z,23.62
2022-08-21T23:11:42.714Z,23.58
2022-08-21T23:14:16.628Z,23.56
2022-08-21T23:17:00.686Z,23.51
2022-08-21T23:19:47.260Z,23.46
2022-08-21T23:22:39.486Z,23.43
2022-08-21T23:25:24.750Z,23.38
2022-08-21T23:28:05.713Z,23.34
2022-08-21T23:30:53.502Z,23.30
2022-08-21T23:33:38.652Z,23.27
2022-08-21T23:36:40.485Z,23.24
2022-08-21T23:39:24.117Z,23.20
2022-08-21T23:42:20.801Z,23.16
2022-08-21T23:45:14.426Z,23.12
2022-08-21T23:48:05.889Z,23.07
2022-08-21T23:50:52.822Z,23.04
2022-08-21T23:53:59.920Z,23.01
2022-08-21T23:56:44.900Z,22.98
2022-08-21T23:59:37.926Z,22.94
